sensor_id;sensor_type;location;lat;lon;timestamp;P1;durP1;ratioP1;P2;durP2;ratioP2
70757;SDS011;59316;52.964;7.102;2023-06-22T00:02:09;47.90;;;26.95;;
70757;SDS011;59316;52.964;7.102;2023-06-22T00:07:31;47.63;;;26.70;;
70757;SDS011;59316;52.964;7.102;2023-06-22T00:12:52;48.10;;;28.05;;
70757;SDS011;59316;52.964;7.102;2023-06-22T00:18:14;58.05;;;31.10;;
70757;SDS011;59316;52.964;7.102;2023-06-22T00:23:35;53.53;;;27.75;;
70757;SDS011;59316;52.964;7.102;2023-06-22T00:28:57;43.78;;;25.42;;
70757;SDS011;59316;52.964;7.102;2023-06-22T00:34:18;51.97;;;26.95;;
70757;SDS011;59316;52.964;7.102;2023-06-22T00:39:41;49.92;;;27.42;;
70757;SDS011;59316;52.964;7.102;2023-06-22T00:45:05;52.58;;;27.80;;
70757;SDS011;59316;52.964;7.102;2023-06-22T00:50:27;58.67;;;31.02;;
70757;SDS011;59316;52.964;7.102;2023-06-22T00:55:54;63.28;;;31.25;;
70757;SDS011;59316;52.964;7.102;2023-06-22T01:01:16;63.33;;;33.50;;
70757;SDS011;59316;52.964;7.102;2023-06-22T01:06:45;67.60;;;34.42;;
70757;SDS011;59316;52.964;7.102;2023-06-22T01:12:21;59.10;;;32.08;;
70757;SDS011;59316;52.964;7.102;2023-06-22T01:17:43;63.20;;;30.52;;
70757;SDS011;59316;52.964;7.102;2023-06-22T01:23:10;49.63;;;25.77;;
70757;SDS011;59316;52.964;7.102;2023-06-22T01:28:49;56.00;;;28.85;;
70757;SDS011;59316;52.964;7.102;2023-06-22T01:34:14;54.28;;;29.27;;
70757;SDS011;59316;52.964;7.102;2023-06-22T01:39:37;50.30;;;28.25;;
70757;SDS011;59316;52.964;7.102;2023-06-22T01:44:59;48.63;;;28.30;;
70757;SDS011;59316;52.964;7.102;2023-06-22T01:50:20;56.85;;;32.83;;
70757;SDS011;59316;52.964;7.102;2023-06-22T01:55:42;81.22;;;35.05;;
70757;SDS011;59316;52.964;7.102;2023-06-22T02:01:10;76.85;;;33.10;;
70757;SDS011;59316;52.964;7.102;2023-06-22T02:06:33;61.30;;;32.80;;
70757;SDS011;59316;52.964;7.102;2023-06-22T02:11:58;57.45;;;29.45;;
70757;SDS011;59316;52.964;7.102;2023-06-22T02:17:23;50.25;;;28.13;;
70757;SDS011;59316;52.964;7.102;2023-06-22T02:22:46;44.80;;;26.60;;
70757;SDS011;59316;52.964;7.102;2023-06-22T02:28:08;49.55;;;26.17;;
70757;SDS011;59316;52.964;7.102;2023-06-22T02:33:31;49.33;;;26.33;;
70757;SDS011;59316;52.964;7.102;2023-06-22T02:38:52;50.45;;;27.85;;
70757;SDS011;59316;52.964;7.102;2023-06-22T02:44:14;48.92;;;26.17;;
70757;SDS011;59316;52.964;7.102;2023-06-22T02:49:36;47.90;;;27.08;;
70757;SDS011;59316;52.964;7.102;2023-06-22T02:54:57;69.15;;;32.33;;
70757;SDS011;59316;52.964;7.102;2023-06-22T03:00:19;68.53;;;31.73;;
70757;SDS011;59316;52.964;7.102;2023-06-22T03:05:41;69.88;;;34.63;;
70757;SDS011;59316;52.964;7.102;2023-06-22T03:11:03;64.72;;;31.92;;
70757;SDS011;59316;52.964;7.102;2023-06-22T03:16:25;72.93;;;36.97;;
70757;SDS011;59316;52.964;7.102;2023-06-22T03:21:46;81.30;;;37.85;;
70757;SDS011;59316;52.964;7.102;2023-06-22T03:27:08;70.93;;;33.38;;
70757;SDS011;59316;52.964;7.102;2023-06-22T03:32:29;68.07;;;33.65;;
70757;SDS011;59316;52.964;7.102;2023-06-22T03:37:51;66.57;;;35.10;;
70757;SDS011;59316;52.964;7.102;2023-06-22T03:43:13;127.90;;;48.95;;
70757;SDS011;59316;52.964;7.102;2023-06-22T03:48:34;87.18;;;40.22;;
70757;SDS011;59316;52.964;7.102;2023-06-22T03:53:56;103.47;;;44.35;;
70757;SDS011;59316;52.964;7.102;2023-06-22T03:59:17;169.57;;;58.15;;
70757;SDS011;59316;52.964;7.102;2023-06-22T04:04:39;180.60;;;59.58;;
70757;SDS011;59316;52.964;7.102;2023-06-22T04:10:01;198.50;;;60.58;;
70757;SDS011;59316;52.964;7.102;2023-06-22T04:15:22;166.88;;;56.72;;
70757;SDS011;59316;52.964;7.102;2023-06-22T04:20:44;181.73;;;61.22;;
70757;SDS011;59316;52.964;7.102;2023-06-22T04:26:05;186.85;;;64.75;;
70757;SDS011;59316;52.964;7.102;2023-06-22T04:31:26;198.05;;;63.15;;
70757;SDS011;59316;52.964;7.102;2023-06-22T04:36:48;168.05;;;61.58;;
70757;SDS011;59316;52.964;7.102;2023-06-22T04:42:09;200.20;;;66.85;;
70757;SDS011;59316;52.964;7.102;2023-06-22T04:47:32;190.90;;;65.45;;
70757;SDS011;59316;52.964;7.102;2023-06-22T04:52:53;153.07;;;60.60;;
70757;SDS011;59316;52.964;7.102;2023-06-22T04:58:15;131.65;;;56.97;;
70757;SDS011;59316;52.964;7.102;2023-06-22T05:03:36;104.78;;;50.95;;
70757;SDS011;59316;52.964;7.102;2023-06-22T05:08:58;81.72;;;46.63;;
70757;SDS011;59316;52.964;7.102;2023-06-22T05:14:19;68.60;;;41.65;;
70757;SDS011;59316;52.964;7.102;2023-06-22T05:19:41;58.78;;;37.80;;
70757;SDS011;59316;52.964;7.102;2023-06-22T05:25:03;52.35;;;34.42;;
70757;SDS011;59316;52.964;7.102;2023-06-22T05:30:28;47.92;;;31.95;;
70757;SDS011;59316;52.964;7.102;2023-06-22T05:35:49;45.78;;;31.48;;
70757;SDS011;59316;52.964;7.102;2023-06-22T05:41:11;39.67;;;27.38;;
70757;SDS011;59316;52.964;7.102;2023-06-22T05:46:33;39.20;;;26.77;;
70757;SDS011;59316;52.964;7.102;2023-06-22T05:51:54;36.58;;;25.58;;
70757;SDS011;59316;52.964;7.102;2023-06-22T05:57:16;33.75;;;23.83;;
70757;SDS011;59316;52.964;7.102;2023-06-22T06:02:38;32.15;;;23.15;;
70757;SDS011;59316;52.964;7.102;2023-06-22T06:08:00;27.92;;;21.30;;
70757;SDS011;59316;52.964;7.102;2023-06-22T06:13:22;25.98;;;20.52;;
70757;SDS011;59316;52.964;7.102;2023-06-22T06:18:44;25.90;;;18.70;;
70757;SDS011;59316;52.964;7.102;2023-06-22T06:24:05;24.23;;;17.05;;
70757;SDS011;59316;52.964;7.102;2023-06-22T06:29:27;22.00;;;17.20;;
70757;SDS011;59316;52.964;7.102;2023-06-22T06:34:48;22.00;;;17.38;;
70757;SDS011;59316;52.964;7.102;2023-06-22T06:40:10;20.40;;;15.93;;
70757;SDS011;59316;52.964;7.102;2023-06-22T06:50:55;17.30;;;13.88;;
70757;SDS011;59316;52.964;7.102;2023-06-22T06:56:16;16.80;;;13.32;;
70757;SDS011;59316;52.964;7.102;2023-06-22T07:01:38;16.15;;;11.57;;
70757;SDS011;59316;52.964;7.102;2023-06-22T07:07:00;16.48;;;13.00;;
70757;SDS011;59316;52.964;7.102;2023-06-22T07:12:22;15.82;;;11.57;;
70757;SDS011;59316;52.964;7.102;2023-06-22T07:17:44;15.07;;;10.15;;
70757;SDS011;59316;52.964;7.102;2023-06-22T07:23:05;12.95;;;9.70;;
70757;SDS011;59316;52.964;7.102;2023-06-22T07:28:27;10.25;;;7.65;;
70757;SDS011;59316;52.964;7.102;2023-06-22T07:33:48;8.90;;;6.68;;
70757;SDS011;59316;52.964;7.102;2023-06-22T07:39:10;7.35;;;6.32;;
70757;SDS011;59316;52.964;7.102;2023-06-22T07:44:31;9.43;;;7.40;;
70757;SDS011;59316;52.964;7.102;2023-06-22T07:49:53;9.00;;;5.88;;
70757;SDS011;59316;52.964;7.102;2023-06-22T07:55:18;9.13;;;7.30;;
70757;SDS011;59316;52.964;7.102;2023-06-22T08:00:42;9.02;;;6.78;;
70757;SDS011;59316;52.964;7.102;2023-06-22T08:06:04;9.68;;;6.18;;
70757;SDS011;59316;52.964;7.102;2023-06-22T08:11:25;8.85;;;6.30;;
70757;SDS011;59316;52.964;7.102;2023-06-22T08:16:47;7.38;;;6.18;;
70757;SDS011;59316;52.964;7.102;2023-06-22T08:22:08;9.05;;;6.68;;
70757;SDS011;59316;52.964;7.102;2023-06-22T08:27:30;9.27;;;6.32;;
70757;SDS011;59316;52.964;7.102;2023-06-22T08:32:52;8.45;;;6.07;;
70757;SDS011;59316;52.964;7.102;2023-06-22T08:38:13;9.45;;;6.75;;
70757;SDS011;59316;52.964;7.102;2023-06-22T08:43:35;10.00;;;6.40;;
70757;SDS011;59316;52.964;7.102;2023-06-22T08:48:56;8.57;;;6.95;;
70757;SDS011;59316;52.964;7.102;2023-06-22T08:54:19;10.45;;;8.23;;
70757;SDS011;59316;52.964;7.102;2023-06-22T08:59:41;9.53;;;8.03;;
70757;SDS011;59316;52.964;7.102;2023-06-22T09:05:03;11.30;;;9.13;;
70757;SDS011;59316;52.964;7.102;2023-06-22T09:10:25;11.27;;;7.72;;
70757;SDS011;59316;52.964;7.102;2023-06-22T09:15:47;9.77;;;8.45;;
70757;SDS011;59316;52.964;7.102;2023-06-22T09:21:09;11.90;;;7.73;;
70757;SDS011;59316;52.964;7.102;2023-06-22T09:26:30;10.13;;;7.57;;
70757;SDS011;59316;52.964;7.102;2023-06-22T09:31:52;8.50;;;6.78;;
70757;SDS011;59316;52.964;7.102;2023-06-22T09:37:13;8.93;;;7.70;;
70757;SDS011;59316;52.964;7.102;2023-06-22T09:42:35;8.95;;;6.82;;
70757;SDS011;59316;52.964;7.102;2023-06-22T09:47:56;9.05;;;6.80;;
70757;SDS011;59316;52.964;7.102;2023-06-22T09:53:17;12.02;;;8.15;;
70757;SDS011;59316;52.964;7.102;2023-06-22T09:58:38;9.88;;;7.68;;
70757;SDS011;59316;52.964;7.102;2023-06-22T10:03:58;9.82;;;7.53;;
70757;SDS011;59316;52.964;7.102;2023-06-22T10:09:19;11.77;;;8.98;;
70757;SDS011;59316;52.964;7.102;2023-06-22T10:14:40;8.93;;;7.18;;
70757;SDS011;59316;52.964;7.102;2023-06-22T10:20:02;12.15;;;7.63;;
70757;SDS011;59316;52.964;7.102;2023-06-22T10:25:23;10.73;;;7.57;;
70757;SDS011;59316;52.964;7.102;2023-06-22T10:30:44;10.88;;;6.90;;
70757;SDS011;59316;52.964;7.102;2023-06-22T10:36:05;11.75;;;9.57;;
70757;SDS011;59316;52.964;7.102;2023-06-22T10:41:26;9.43;;;6.93;;
70757;SDS011;59316;52.964;7.102;2023-06-22T10:46:46;11.18;;;9.05;;
70757;SDS011;59316;52.964;7.102;2023-06-22T10:52:08;10.95;;;8.88;;
70757;SDS011;59316;52.964;7.102;2023-06-22T10:57:29;12.60;;;8.07;;
70757;SDS011;59316;52.964;7.102;2023-06-22T11:02:50;10.67;;;9.57;;
70757;SDS011;59316;52.964;7.102;2023-06-22T11:08:11;8.93;;;6.47;;
70757;SDS011;59316;52.964;7.102;2023-06-22T11:13:32;10.18;;;8.48;;
70757;SDS011;59316;52.964;7.102;2023-06-22T11:18:53;9.63;;;7.55;;
70757;SDS011;59316;52.964;7.102;2023-06-22T11:24:13;7.82;;;6.43;;
70757;SDS011;59316;52.964;7.102;2023-06-22T11:29:34;7.80;;;6.60;;
70757;SDS011;59316;52.964;7.102;2023-06-22T11:34:57;7.43;;;5.68;;
70757;SDS011;59316;52.964;7.102;2023-06-22T11:40:18;6.55;;;5.85;;
70757;SDS011;59316;52.964;7.102;2023-06-22T11:45:39;7.10;;;5.20;;
70757;SDS011;59316;52.964;7.102;2023-06-22T11:51:00;7.65;;;5.35;;
70757;SDS011;59316;52.964;7.102;2023-06-22T11:56:21;9.80;;;5.97;;
70757;SDS011;59316;52.964;7.102;2023-06-22T12:01:42;5.30;;;4.20;;
70757;SDS011;59316;52.964;7.102;2023-06-22T12:07:03;5.90;;;4.30;;
70757;SDS011;59316;52.964;7.102;2023-06-22T12:12:24;5.55;;;4.32;;
70757;SDS011;59316;52.964;7.102;2023-06-22T12:17:45;6.55;;;4.30;;
70757;SDS011;59316;52.964;7.102;2023-06-22T12:23:06;6.32;;;4.97;;
70757;SDS011;59316;52.964;7.102;2023-06-22T12:28:27;6.05;;;4.75;;
70757;SDS011;59316;52.964;7.102;2023-06-22T12:33:48;8.73;;;4.38;;
70757;SDS011;59316;52.964;7.102;2023-06-22T12:39:09;7.18;;;4.72;;
70757;SDS011;59316;52.964;7.102;2023-06-22T12:44:29;4.45;;;3.90;;
70757;SDS011;59316;52.964;7.102;2023-06-22T12:49:50;5.13;;;4.10;;
70757;SDS011;59316;52.964;7.102;2023-06-22T12:55:11;5.43;;;3.30;;
70757;SDS011;59316;52.964;7.102;2023-06-22T13:00:32;4.32;;;3.20;;
70757;SDS011;59316;52.964;7.102;2023-06-22T13:05:53;5.60;;;3.83;;
70757;SDS011;59316;52.964;7.102;2023-06-22T13:11:14;5.17;;;3.43;;
70757;SDS011;59316;52.964;7.102;2023-06-22T13:16:35;5.22;;;3.75;;
70757;SDS011;59316;52.964;7.102;2023-06-22T13:21:56;6.15;;;4.78;;
70757;SDS011;59316;52.964;7.102;2023-06-22T13:27:17;5.68;;;5.00;;
70757;SDS011;59316;52.964;7.102;2023-06-22T13:32:38;8.80;;;5.68;;
70757;SDS011;59316;52.964;7.102;2023-06-22T13:37:59;7.13;;;5.45;;
70757;SDS011;59316;52.964;7.102;2023-06-22T13:43:20;8.45;;;5.43;;
70757;SDS011;59316;52.964;7.102;2023-06-22T13:48:41;9.75;;;6.30;;
70757;SDS011;59316;52.964;7.102;2023-06-22T13:54:02;9.50;;;6.75;;
70757;SDS011;59316;52.964;7.102;2023-06-22T13:59:27;11.57;;;7.63;;
70757;SDS011;59316;52.964;7.102;2023-06-22T14:04:48;9.77;;;7.07;;
70757;SDS011;59316;52.964;7.102;2023-06-22T14:10:09;13.98;;;8.35;;
70757;SDS011;59316;52.964;7.102;2023-06-22T14:15:30;13.30;;;8.65;;
70757;SDS011;59316;52.964;7.102;2023-06-22T14:20:52;13.48;;;9.60;;
70757;SDS011;59316;52.964;7.102;2023-06-22T14:26:13;12.95;;;8.70;;
70757;SDS011;59316;52.964;7.102;2023-06-22T14:31:34;10.80;;;7.85;;
70757;SDS011;59316;52.964;7.102;2023-06-22T14:36:55;15.07;;;8.57;;
70757;SDS011;59316;52.964;7.102;2023-06-22T14:42:16;11.82;;;9.27;;
70757;SDS011;59316;52.964;7.102;2023-06-22T14:47:36;12.48;;;9.60;;
70757;SDS011;59316;52.964;7.102;2023-06-22T14:52:57;10.82;;;8.82;;
70757;SDS011;59316;52.964;7.102;2023-06-22T14:58:18;13.45;;;9.40;;
70757;SDS011;59316;52.964;7.102;2023-06-22T15:03:39;14.82;;;9.20;;
70757;SDS011;59316;52.964;7.102;2023-06-22T15:09:01;14.13;;;9.10;;
70757;SDS011;59316;52.964;7.102;2023-06-22T15:14:22;14.13;;;9.68;;
70757;SDS011;59316;52.964;7.102;2023-06-22T15:19:43;13.60;;;9.23;;
70757;SDS011;59316;52.964;7.102;2023-06-22T15:25:04;13.57;;;10.00;;
70757;SDS011;59316;52.964;7.102;2023-06-22T15:30:25;14.95;;;10.38;;
70757;SDS011;59316;52.964;7.102;2023-06-22T15:35:47;13.73;;;9.50;;
70757;SDS011;59316;52.964;7.102;2023-06-22T15:41:08;13.48;;;10.00;;
70757;SDS011;59316;52.964;7.102;2023-06-22T15:46:29;15.80;;;9.50;;
70757;SDS011;59316;52.964;7.102;2023-06-22T15:51:51;12.98;;;9.35;;
70757;SDS011;59316;52.964;7.102;2023-06-22T15:57:12;15.43;;;10.13;;
70757;SDS011;59316;52.964;7.102;2023-06-22T16:02:33;16.83;;;9.27;;
70757;SDS011;59316;52.964;7.102;2023-06-22T16:07:55;11.45;;;8.57;;
70757;SDS011;59316;52.964;7.102;2023-06-22T16:13:16;11.32;;;7.85;;
70757;SDS011;59316;52.964;7.102;2023-06-22T16:18:37;16.30;;;8.30;;
70757;SDS011;59316;52.964;7.102;2023-06-22T16:23:59;9.65;;;7.60;;
70757;SDS011;59316;52.964;7.102;2023-06-22T16:29:20;10.68;;;7.70;;
70757;SDS011;59316;52.964;7.102;2023-06-22T16:34:41;9.73;;;6.78;;
70757;SDS011;59316;52.964;7.102;2023-06-22T16:40:03;10.55;;;6.30;;
70757;SDS011;59316;52.964;7.102;2023-06-22T16:45:25;7.95;;;6.05;;
70757;SDS011;59316;52.964;7.102;2023-06-22T16:50:47;9.23;;;5.15;;
70757;SDS011;59316;52.964;7.102;2023-06-22T16:56:08;8.00;;;4.93;;
70757;SDS011;59316;52.964;7.102;2023-06-22T17:01:29;5.45;;;4.20;;
70757;SDS011;59316;52.964;7.102;2023-06-22T17:06:58;7.03;;;4.30;;
70757;SDS011;59316;52.964;7.102;2023-06-22T17:12:33;5.00;;;3.15;;
70757;SDS011;59316;52.964;7.102;2023-06-22T17:17:54;11.38;;;2.92;;
70757;SDS011;59316;52.964;7.102;2023-06-22T17:23:17;4.05;;;2.92;;
70757;SDS011;59316;52.964;7.102;2023-06-22T17:28:49;4.70;;;2.10;;
70757;SDS011;59316;52.964;7.102;2023-06-22T17:34:12;4.37;;;2.43;;
70757;SDS011;59316;52.964;7.102;2023-06-22T17:39:36;7.40;;;1.88;;
70757;SDS011;59316;52.964;7.102;2023-06-22T17:45:00;4.55;;;2.40;;
70757;SDS011;59316;52.964;7.102;2023-06-22T17:50:23;4.93;;;2.00;;
70757;SDS011;59316;52.964;7.102;2023-06-22T17:55:45;3.38;;;2.30;;
70757;SDS011;59316;52.964;7.102;2023-06-22T18:01:07;3.50;;;2.15;;
70757;SDS011;59316;52.964;7.102;2023-06-22T18:06:28;4.50;;;2.28;;
70757;SDS011;59316;52.964;7.102;2023-06-22T18:11:51;4.82;;;2.67;;
70757;SDS011;59316;52.964;7.102;2023-06-22T18:17:15;5.15;;;2.35;;
70757;SDS011;59316;52.964;7.102;2023-06-22T18:22:38;3.92;;;2.17;;
70757;SDS011;59316;52.964;7.102;2023-06-22T18:28:00;5.97;;;3.17;;
70757;SDS011;59316;52.964;7.102;2023-06-22T18:33:22;4.00;;;2.90;;
70757;SDS011;59316;52.964;7.102;2023-06-22T18:38:43;8.80;;;2.97;;
70757;SDS011;59316;52.964;7.102;2023-06-22T18:44:26;5.60;;;3.40;;
70757;SDS011;59316;52.964;7.102;2023-06-22T18:49:49;7.82;;;3.97;;
70757;SDS011;59316;52.964;7.102;2023-06-22T18:55:13;5.72;;;4.43;;
70757;SDS011;59316;52.964;7.102;2023-06-22T19:00:35;7.95;;;4.97;;
70757;SDS011;59316;52.964;7.102;2023-06-22T19:05:56;10.15;;;4.80;;
70757;SDS011;59316;52.964;7.102;2023-06-22T19:11:17;7.10;;;4.85;;
70757;SDS011;59316;52.964;7.102;2023-06-22T19:16:47;8.32;;;4.22;;
70757;SDS011;59316;52.964;7.102;2023-06-22T19:22:18;7.75;;;4.97;;
70757;SDS011;59316;52.964;7.102;2023-06-22T19:27:40;11.10;;;5.28;;
70757;SDS011;59316;52.964;7.102;2023-06-22T19:33:01;8.98;;;5.70;;
70757;SDS011;59316;52.964;7.102;2023-06-22T19:38:24;12.05;;;5.72;;
70757;SDS011;59316;52.964;7.102;2023-06-22T19:43:46;11.17;;;6.63;;
70757;SDS011;59316;52.964;7.102;2023-06-22T19:49:08;8.30;;;5.97;;
70757;SDS011;59316;52.964;7.102;2023-06-22T19:54:29;10.05;;;6.53;;
70757;SDS011;59316;52.964;7.102;2023-06-22T19:59:51;14.23;;;7.18;;
70757;SDS011;59316;52.964;7.102;2023-06-22T20:05:13;11.93;;;6.75;;
70757;SDS011;59316;52.964;7.102;2023-06-22T20:10:36;12.15;;;7.25;;
70757;SDS011;59316;52.964;7.102;2023-06-22T20:15:58;11.73;;;7.00;;
70757;SDS011;59316;52.964;7.102;2023-06-22T20:21:31;12.18;;;7.18;;
70757;SDS011;59316;52.964;7.102;2023-06-22T20:26:53;10.18;;;6.30;;
70757;SDS011;59316;52.964;7.102;2023-06-22T20:32:14;11.52;;;6.32;;
70757;SDS011;59316;52.964;7.102;2023-06-22T20:37:36;9.90;;;5.45;;
70757;SDS011;59316;52.964;7.102;2023-06-22T20:42:58;8.95;;;5.80;;
70757;SDS011;59316;52.964;7.102;2023-06-22T20:48:21;13.23;;;6.27;;
70757;SDS011;59316;52.964;7.102;2023-06-22T20:53:58;17.05;;;6.97;;
70757;SDS011;59316;52.964;7.102;2023-06-22T20:59:19;13.90;;;7.13;;
70757;SDS011;59316;52.964;7.102;2023-06-22T21:04:41;12.00;;;7.30;;
70757;SDS011;59316;52.964;7.102;2023-06-22T21:10:02;9.73;;;7.15;;
70757;SDS011;59316;52.964;7.102;2023-06-22T21:15:24;10.93;;;6.60;;
70757;SDS011;59316;52.964;7.102;2023-06-22T21:20:45;14.15;;;7.03;;
70757;SDS011;59316;52.964;7.102;2023-06-22T21:26:07;16.80;;;8.13;;
70757;SDS011;59316;52.964;7.102;2023-06-22T21:31:28;14.00;;;8.45;;
70757;SDS011;59316;52.964;7.102;2023-06-22T21:36:50;19.27;;;9.18;;
70757;SDS011;59316;52.964;7.102;2023-06-22T21:42:12;14.98;;;8.43;;
70757;SDS011;59316;52.964;7.102;2023-06-22T21:47:34;12.93;;;8.18;;
70757;SDS011;59316;52.964;7.102;2023-06-22T21:52:55;17.55;;;8.07;;
70757;SDS011;59316;52.964;7.102;2023-06-22T21:58:17;19.48;;;9.48;;
70757;SDS011;59316;52.964;7.102;2023-06-22T22:03:38;18.30;;;9.38;;
70757;SDS011;59316;52.964;7.102;2023-06-22T22:09:00;18.00;;;10.43;;
70757;SDS011;59316;52.964;7.102;2023-06-22T22:14:22;19.90;;;10.10;;
70757;SDS011;59316;52.964;7.102;2023-06-22T22:19:43;15.98;;;10.32;;
70757;SDS011;59316;52.964;7.102;2023-06-22T22:25:05;19.45;;;11.85;;
70757;SDS011;59316;52.964;7.102;2023-06-22T22:30:27;19.98;;;12.55;;
70757;SDS011;59316;52.964;7.102;2023-06-22T22:35:48;19.67;;;13.10;;
70757;SDS011;59316;52.964;7.102;2023-06-22T22:41:10;20.27;;;13.32;;
70757;SDS011;59316;52.964;7.102;2023-06-22T22:46:31;23.83;;;14.23;;
70757;SDS011;59316;52.964;7.102;2023-06-22T22:51:55;21.13;;;13.27;;
70757;SDS011;59316;52.964;7.102;2023-06-22T22:57:16;24.98;;;14.38;;
70757;SDS011;59316;52.964;7.102;2023-06-22T23:02:38;26.02;;;14.38;;
70757;SDS011;59316;52.964;7.102;2023-06-22T23:08:00;25.83;;;15.43;;
70757;SDS011;59316;52.964;7.102;2023-06-22T23:13:22;29.08;;;17.02;;
70757;SDS011;59316;52.964;7.102;2023-06-22T23:18:44;30.52;;;17.58;;
70757;SDS011;59316;52.964;7.102;2023-06-22T23:24:05;33.83;;;17.23;;
70757;SDS011;59316;52.964;7.102;2023-06-22T23:29:27;33.65;;;16.63;;
70757;SDS011;59316;52.964;7.102;2023-06-22T23:34:48;30.50;;;17.23;;
70757;SDS011;59316;52.964;7.102;2023-06-22T23:40:10;31.67;;;16.00;;
70757;SDS011;59316;52.964;7.102;2023-06-22T23:45:32;30.85;;;15.65;;
70757;SDS011;59316;52.964;7.102;2023-06-22T23:50:55;32.60;;;16.20;;
70757;SDS011;59316;52.964;7.102;2023-06-22T23:56:16;30.42;;;16.10;;
